createdAt,value
2023-02-09T00:00:09.720Z,102498.84
2023-02-09T00:02:42.749Z,102485.38
2023-02-09T00:05:11.720Z,102502.34
2023-02-09T00:07:39.822Z,102495.41
2023-02-09T00:10:08.389Z,102506.19
2023-02-09T00:12:56.880Z,102497.91
2023-02-09T00:15:25.229Z,102495.56
2023-02-09T00:17:53.603Z,102498.09
2023-02-09T00:20:22.345Z,102488.63
2023-02-09T00:22:50.598Z,102493.59
2023-02-09T00:25:19.160Z,102492.81
2023-02-09T00:27:47.314Z,102499.53
2023-02-09T00:30:15.701Z,102496.84
2023-02-09T00:32:46.381Z,102485.66
2023-02-09T00:35:15.630Z,102491.53
2023-02-09T00:37:43.742Z,102483.97
2023-02-09T00:40:14.471Z,102484.59
2023-02-09T00:42:42.889Z,102487.13
2023-02-09T00:45:11.691Z,102488.13
2023-02-09T00:47:39.921Z,102489.53
2023-02-09T00:50:09.933Z,102480.31
2023-02-09T00:52:38.490Z,102488.53
2023-02-09T00:55:07.255Z,102484.37
2023-02-09T00:57:36.186Z,102471.84
2023-02-09T01:00:06.737Z,102476.97
2023-02-09T01:02:35.854Z,102475.31
2023-02-09T01:05:04.557Z,102479.84
2023-02-09T01:07:33.570Z,102471.47
2023-02-09T01:10:03.117Z,102461.44
2023-02-09T01:12:33.496Z,102458.78
2023-02-09T01:15:02.178Z,102467.19
2023-02-09T01:17:30.268Z,102461.31
2023-02-09T01:19:58.466Z,102447.81
2023-02-09T01:22:27.444Z,102447.00
2023-02-09T01:24:55.666Z,102443.37
2023-02-09T01:27:23.825Z,102441.31
2023-02-09T01:29:54.511Z,102445.62
2023-02-09T01:32:24.233Z,102432.19
2023-02-09T01:34:54.134Z,102439.41
2023-02-09T01:37:22.505Z,102436.94
2023-02-09T01:39:51.012Z,102433.63
2023-02-09T01:42:20.906Z,102430.31
2023-02-09T01:45:01.208Z,102429.63
2023-02-09T01:47:35.103Z,102413.56
2023-02-09T01:50:03.775Z,102420.41
2023-02-09T01:52:35.347Z,102400.06
2023-02-09T01:55:09.274Z,102404.34
2023-02-09T01:57:42.047Z,102403.37
2023-02-09T02:00:16.654Z,102398.34
2023-02-09T02:02:52.800Z,102403.41
2023-02-09T02:05:22.695Z,102390.28
2023-02-09T02:08:11.006Z,102395.06
2023-02-09T02:10:39.653Z,102380.91
2023-02-09T02:13:08.861Z,102379.34
2023-02-09T02:16:11.455Z,102374.97
2023-02-09T02:19:09.794Z,102373.06
2023-02-09T02:22:08.736Z,102381.56
2023-02-09T02:24:58.262Z,102369.75
2023-02-09T02:27:41.690Z,102377.44
2023-02-09T02:30:17.585Z,102376.66
2023-02-09T02:33:13.840Z,102366.41
2023-02-09T02:35:53.267Z,102368.06
2023-02-09T02:38:40.053Z,102372.25
2023-02-09T02:41:24.123Z,102363.06
2023-02-09T02:44:06.119Z,102370.88
2023-02-09T02:46:44.968Z,102380.06
2023-02-09T02:49:25.449Z,102380.97
2023-02-09T02:51:59.431Z,102368.13
2023-02-09T02:54:34.567Z,102379.06
2023-02-09T02:57:09.863Z,102368.16
2023-02-09T02:59:44.594Z,102378.09
2023-02-09T03:02:24.654Z,102384.59
2023-02-09T03:04:55.529Z,102383.88
2023-02-09T03:07:24.410Z,102378.78
2023-02-09T03:09:56.148Z,102379.69
2023-02-09T03:12:51.571Z,102381.31
2023-02-09T03:15:26.305Z,102376.22
2023-02-09T03:18:14.127Z,102368.06
2023-02-09T03:20:57.598Z,102372.22
2023-02-09T03:23:28.769Z,102367.12
2023-02-09T03:25:59.338Z,102368.91
2023-02-09T03:28:35.202Z,102371.34
2023-02-09T03:31:05.314Z,102386.56
2023-02-09T03:33:37.013Z,102369.66
2023-02-09T03:36:10.443Z,102382.28
2023-02-09T03:38:38.628Z,102380.53
2023-02-09T03:41:08.073Z,102389.84
2023-02-09T03:43:55.589Z,102388.12
2023-02-09T03:46:24.259Z,102380.41
2023-02-09T03:48:52.502Z,102393.97
2023-02-09T03:51:20.995Z,102388.78
2023-02-09T03:53:49.993Z,102394.59
2023-02-09T03:56:18.435Z,102400.66
2023-02-09T03:58:46.900Z,102404.81
2023-02-09T04:01:15.935Z,102397.91
2023-02-09T04:03:44.702Z,102395.34
2023-02-09T04:06:13.010Z,102391.94
2023-02-09T04:08:43.113Z,102401.25
2023-02-09T04:11:12.012Z,102390.13
2023-02-09T04:13:40.432Z,102388.41
2023-02-09T04:16:08.679Z,102396.88
2023-02-09T04:18:37.146Z,102395.06
2023-02-09T04:21:05.673Z,102399.37
2023-02-09T04:23:33.738Z,102393.31
2023-02-09T04:26:02.525Z,102392.53
2023-02-09T04:28:30.847Z,102389.22
2023-02-09T04:30:59.150Z,102388.47
2023-02-09T04:33:27.620Z,102384.97
2023-02-09T04:35:56.069Z,102378.03
2023-02-09T04:38:24.843Z,102374.72
2023-02-09T04:40:55.164Z,102372.03
2023-02-09T04:43:23.327Z,102371.31
2023-02-09T04:45:51.640Z,102363.69
2023-02-09T04:48:23.486Z,102363.78
2023-02-09T04:50:52.432Z,102357.97
2023-02-09T04:53:21.993Z,102369.94
2023-02-09T04:55:51.447Z,102371.91
2023-02-09T04:58:39.957Z,102375.37
2023-02-09T05:01:19.433Z,102366.88
2023-02-09T05:03:47.751Z,102371.59
2023-02-09T05:06:16.907Z,102366.25
2023-02-09T05:08:45.627Z,102361.28
2023-02-09T05:11:13.995Z,102370.81
2023-02-09T05:13:42.598Z,102374.47
2023-02-09T05:16:14.953Z,102371.03
2023-02-09T05:18:44.251Z,102377.00
2023-02-09T05:21:14.392Z,102382.09
2023-02-09T05:23:42.608Z,102379.59
2023-02-09T05:26:11.052Z,102374.38
2023-02-09T05:28:39.138Z,102386.25
2023-02-09T05:31:07.414Z,102382.09
2023-02-09T05:33:35.993Z,102363.66
2023-02-09T05:36:09.684Z,102378.00
2023-02-09T05:38:39.548Z,102378.72
2023-02-09T05:41:32.754Z,102374.38
2023-02-09T05:44:01.269Z,102377.56
2023-02-09T05:46:29.519Z,102373.25
2023-02-09T05:48:57.885Z,102372.34
2023-02-09T05:51:26.302Z,102366.22
2023-02-09T05:53:56.768Z,102372.09
2023-02-09T05:56:25.147Z,102376.28
2023-02-09T05:58:53.840Z,102360.97
2023-02-09T06:01:22.493Z,102375.34
2023-02-09T06:03:51.165Z,102374.19
2023-02-09T06:06:19.348Z,102377.56
2023-02-09T06:08:47.632Z,102376.88
2023-02-09T06:11:16.422Z,102372.87
2023-02-09T06:13:44.980Z,102367.69
2023-02-09T06:16:13.099Z,102376.91
2023-02-09T06:18:41.661Z,102376.84
2023-02-09T06:21:11.650Z,102372.87
2023-02-09T06:23:40.244Z,102374.62
2023-02-09T06:26:10.793Z,102383.00
2023-02-09T06:28:39.986Z,102378.84
2023-02-09T06:31:09.036Z,102385.81
2023-02-09T06:33:38.125Z,102384.12
2023-02-09T06:36:07.337Z,102391.84
2023-02-09T06:38:37.164Z,102385.56
2023-02-09T06:41:05.906Z,102385.84
2023-02-09T06:43:34.187Z,102378.31
2023-02-09T06:46:12.077Z,102389.78
2023-02-09T06:48:40.863Z,102374.75
2023-02-09T06:51:14.777Z,102384.19
2023-02-09T06:53:43.858Z,102384.28
2023-02-09T06:56:13.154Z,102386.88
2023-02-09T06:58:42.131Z,102380.28
2023-02-09T07:01:15.761Z,102389.66
2023-02-09T07:03:45.309Z,102390.47
2023-02-09T07:06:17.115Z,102393.88
2023-02-09T07:08:46.367Z,102387.13
2023-02-09T07:11:16.653Z,102385.22
2023-02-09T07:13:45.847Z,102383.19
2023-02-09T07:16:15.759Z,102384.12
2023-02-09T07:18:44.066Z,102378.41
2023-02-09T07:21:20.109Z,102376.75
2023-02-09T07:23:48.642Z,102377.59
2023-02-09T07:26:18.482Z,102369.97
2023-02-09T07:28:46.940Z,102374.31
2023-02-09T07:31:16.580Z,102377.69
2023-02-09T07:33:45.456Z,102385.31
2023-02-09T07:36:15.842Z,102370.09
2023-02-09T07:38:45.585Z,102368.59
2023-02-09T07:41:17.445Z,102369.44
2023-02-09T07:43:46.844Z,102374.56
2023-02-09T07:46:17.153Z,102381.38
2023-02-09T07:48:45.846Z,102372.97
2023-02-09T07:51:25.383Z,102382.22
2023-02-09T07:53:54.441Z,102372.13
2023-02-09T07:56:23.652Z,102377.28
2023-02-09T07:58:52.668Z,102361.22
2023-02-09T08:01:21.666Z,102373.09
2023-02-09T08:03:50.888Z,102376.50
2023-02-09T08:06:42.901Z,102367.12
2023-02-09T08:09:14.849Z,102363.69
2023-02-09T08:11:58.747Z,102355.06
2023-02-09T08:14:35.021Z,102360.97
2023-02-09T08:17:20.548Z,102366.00
2023-02-09T08:19:54.488Z,102350.53
2023-02-09T08:22:28.889Z,102348.66
2023-02-09T08:24:58.942Z,102357.78
2023-02-09T08:27:27.720Z,102353.38
2023-02-09T08:30:17.663Z,102353.88
2023-02-09T08:33:03.910Z,102354.09
2023-02-09T08:35:32.177Z,102355.22
2023-02-09T08:38:02.285Z,102368.34
2023-02-09T08:40:31.870Z,102360.03
2023-02-09T08:43:00.143Z,102353.66
2023-02-09T08:45:29.177Z,102352.34
2023-02-09T08:47:57.316Z,102351.38
2023-02-09T08:50:25.726Z,102355.00
2023-02-09T08:52:54.183Z,102346.19
2023-02-09T08:55:22.277Z,102350.19
2023-02-09T08:57:50.707Z,102349.59
2023-02-09T09:00:19.505Z,102350.41
2023-02-09T09:02:48.051Z,102351.97
2023-02-09T09:05:16.316Z,102347.91
2023-02-09T09:07:44.818Z,102345.53
2023-02-09T09:10:13.804Z,102348.84
2023-02-09T09:12:42.622Z,102340.88
2023-02-09T09:15:10.997Z,102348.87
2023-02-09T09:17:39.164Z,102346.72
2023-02-09T09:20:08.003Z,102343.97
2023-02-09T09:22:36.676Z,102353.16
2023-02-09T09:25:05.916Z,102354.25
2023-02-09T09:27:35.136Z,102351.97
2023-02-09T09:30:05.131Z,102361.78
2023-02-09T09:32:33.465Z,102368.63
2023-02-09T09:35:03.573Z,102359.44
2023-02-09T09:37:33.067Z,102366.34
2023-02-09T09:40:01.318Z,102363.69
2023-02-09T09:42:41.889Z,102363.66
2023-02-09T09:45:18.437Z,102372.03
2023-02-09T09:47:47.738Z,102369.00
2023-02-09T09:50:32.723Z,102359.41
2023-02-09T09:53:12.621Z,102361.53
2023-02-09T09:55:41.289Z,102356.88
2023-02-09T09:58:18.703Z,102376.22
2023-02-09T10:00:48.948Z,102369.94
2023-02-09T10:03:20.021Z,102373.94
2023-02-09T10:05:51.359Z,102358.13
2023-02-09T10:08:37.101Z,102366.81
2023-02-09T10:11:10.024Z,102364.12
2023-02-09T10:13:41.058Z,102356.25
2023-02-09T10:16:26.768Z,102364.44
2023-02-09T10:19:00.622Z,102353.16
2023-02-09T10:21:33.436Z,102341.59
2023-02-09T10:24:01.818Z,102339.50
2023-02-09T10:26:32.663Z,102340.78
2023-02-09T10:29:28.325Z,102341.94
2023-02-09T10:32:07.920Z,102337.25
2023-02-09T10:34:38.968Z,102331.59
2023-02-09T10:37:37.705Z,102328.81
2023-02-09T10:40:18.498Z,102320.69
2023-02-09T10:43:18.062Z,102312.19
2023-02-09T10:45:51.349Z,102309.31
2023-02-09T10:48:21.124Z,102305.59
2023-02-09T10:51:01.125Z,102294.47
2023-02-09T10:53:36.486Z,102294.97
2023-02-09T10:56:06.927Z,102296.31
2023-02-09T10:58:37.651Z,102297.03
2023-02-09T11:01:09.281Z,102291.22
2023-02-09T11:03:56.518Z,102275.41
2023-02-09T11:06:25.614Z,102271.69
2023-02-09T11:09:24.326Z,102272.06
2023-02-09T11:11:53.168Z,102266.09
2023-02-09T11:14:22.098Z,102255.19
2023-02-09T11:17:09.074Z,102263.09
2023-02-09T11:19:37.484Z,102248.72
2023-02-09T11:22:11.058Z,102250.19
2023-02-09T11:25:04.802Z,102244.44
2023-02-09T11:27:48.403Z,102236.87
2023-02-09T11:30:43.030Z,102234.34
2023-02-09T11:33:26.845Z,102230.03
2023-02-09T11:36:08.673Z,102226.94
2023-02-09T11:38:40.088Z,102231.50
2023-02-09T11:41:33.113Z,102230.97
2023-02-09T11:44:05.691Z,102222.97
2023-02-09T11:46:35.890Z,102239.72
2023-02-09T11:49:11.565Z,102232.72
2023-02-09T11:51:44.074Z,102226.69
2023-02-09T11:54:23.062Z,102225.44
2023-02-09T11:57:00.665Z,102230.81
2023-02-09T11:59:35.095Z,102226.97
2023-02-09T12:02:37.997Z,102214.31
2023-02-09T12:05:12.641Z,102216.22
2023-02-09T12:08:12.437Z,102208.28
2023-02-09T12:10:47.466Z,102204.91
2023-02-09T12:13:28.467Z,102211.12
2023-02-09T12:16:08.297Z,102212.06
2023-02-09T12:18:39.897Z,102214.53
2023-02-09T12:21:08.564Z,102201.38
2023-02-09T12:23:41.540Z,102189.00
2023-02-09T12:26:12.937Z,102194.50
2023-02-09T12:28:54.086Z,102187.41
2023-02-09T12:31:27.309Z,102188.94
2023-02-09T12:33:58.510Z,102192.94
2023-02-09T12:36:35.114Z,102191.44
2023-02-09T12:39:25.095Z,102185.63
2023-02-09T12:42:13.340Z,102184.06
2023-02-09T12:44:55.113Z,102187.75
2023-02-09T12:47:58.039Z,102177.91
2023-02-09T12:50:33.298Z,102174.69
2023-02-09T12:53:23.843Z,102171.16
2023-02-09T12:56:26.491Z,102166.56
2023-02-09T12:59:08.949Z,102159.63
2023-02-09T13:02:08.552Z,102152.91
2023-02-09T13:05:12.602Z,102152.19
2023-02-09T13:07:41.410Z,102156.91
2023-02-09T13:10:36.548Z,102149.75
2023-02-09T13:13:19.626Z,102146.97
2023-02-09T13:15:48.198Z,102145.84
2023-02-09T13:18:23.239Z,102140.78
2023-02-09T13:21:13.004Z,102133.25
2023-02-09T13:23:49.794Z,102140.00
2023-02-09T13:26:31.083Z,102139.78
2023-02-09T13:29:20.383Z,102137.25
2023-02-09T13:32:08.562Z,102133.78
2023-02-09T13:34:55.275Z,102123.75
2023-02-09T13:37:50.017Z,102124.28
2023-02-09T13:40:26.499Z,102135.16
2023-02-09T13:43:16.310Z,102133.41
2023-02-09T13:45:49.784Z,102136.72
2023-02-09T13:48:28.547Z,102129.75
2023-02-09T13:50:59.888Z,102123.66
2023-02-09T13:53:31.034Z,102124.28
2023-02-09T13:56:00.670Z,102108.16
2023-02-09T13:58:32.844Z,102121.03
2023-02-09T14:01:05.521Z,102124.13
2023-02-09T14:03:56.650Z,102120.47
2023-02-09T14:06:50.639Z,102124.56
2023-02-09T14:09:29.667Z,102127.19
2023-02-09T14:12:02.453Z,102122.09
2023-02-09T14:14:54.377Z,102117.75
2023-02-09T14:17:27.587Z,102116.03
2023-02-09T14:19:58.733Z,102112.75
2023-02-09T14:22:54.700Z,102110.84
2023-02-09T14:25:24.587Z,102109.41
2023-02-09T14:27:53.150Z,102102.09
2023-02-09T14:30:24.339Z,102115.78
2023-02-09T14:32:55.404Z,102116.72
2023-02-09T14:35:29.057Z,102110.72
2023-02-09T14:37:59.775Z,102102.22
2023-02-09T14:40:28.066Z,102100.00
2023-02-09T14:43:02.402Z,102107.59
2023-02-09T14:45:48.376Z,102104.41
2023-02-09T14:48:19.691Z,102109.66
2023-02-09T14:50:59.653Z,102100.25
2023-02-09T14:53:31.829Z,102107.78
2023-02-09T14:56:00.316Z,102102.13
2023-02-09T14:58:31.408Z,102103.66
2023-02-09T15:01:01.982Z,102098.50
2023-02-09T15:03:30.484Z,102091.97
2023-02-09T15:06:01.490Z,102097.38
2023-02-09T15:08:35.864Z,102092.31
2023-02-09T15:11:26.604Z,102091.72
2023-02-09T15:14:04.100Z,102087.59
2023-02-09T15:16:32.574Z,102084.34
2023-02-09T15:19:01.082Z,102089.62
2023-02-09T15:21:29.146Z,102091.56
2023-02-09T15:23:57.501Z,102092.44
2023-02-09T15:26:26.915Z,102097.75
2023-02-09T15:28:55.459Z,102083.38
2023-02-09T15:31:24.872Z,102089.44
2023-02-09T15:33:53.327Z,102101.81
2023-02-09T15:36:23.698Z,102101.91
2023-02-09T15:38:51.909Z,102103.75
2023-02-09T15:41:38.820Z,102086.88
2023-02-09T15:44:38.339Z,102093.75
2023-02-09T15:47:28.057Z,102094.72
2023-02-09T15:49:56.492Z,102091.66
2023-02-09T15:52:29.469Z,102109.78
2023-02-09T15:54:57.827Z,102099.69
2023-02-09T15:57:26.341Z,102094.69
2023-02-09T15:59:54.455Z,102096.62
2023-02-09T16:02:23.730Z,102094.22
2023-02-09T16:04:52.173Z,102101.97
2023-02-09T16:07:25.870Z,102093.53
2023-02-09T16:09:55.803Z,102103.72
2023-02-09T16:12:24.147Z,102101.19
2023-02-09T16:14:53.310Z,102099.62
2023-02-09T16:17:21.891Z,102106.41
2023-02-09T16:19:50.030Z,102102.31
2023-02-09T16:22:23.397Z,102098.06
2023-02-09T16:24:52.281Z,102092.94
2023-02-09T16:27:27.903Z,102094.84
2023-02-09T16:29:58.742Z,102096.59
2023-02-09T16:32:28.615Z,102099.28
2023-02-09T16:35:04.647Z,102095.75
2023-02-09T16:37:36.556Z,102089.75
2023-02-09T16:40:33.022Z,102091.66
2023-02-09T16:43:02.161Z,102089.09
2023-02-09T16:45:35.062Z,102095.88
2023-02-09T16:48:03.899Z,102088.16
2023-02-09T16:50:35.780Z,102088.19
2023-02-09T16:53:15.406Z,102097.50
2023-02-09T16:55:48.891Z,102095.94
2023-02-09T16:58:18.649Z,102100.97
2023-02-09T17:00:47.840Z,102089.16
2023-02-09T17:03:20.108Z,102096.03
2023-02-09T17:05:52.499Z,102100.59
2023-02-09T17:08:26.279Z,102094.50
2023-02-09T17:10:56.611Z,102092.09
2023-02-09T17:13:25.564Z,102086.38
2023-02-09T17:15:56.698Z,102084.59
2023-02-09T17:18:28.765Z,102089.75
2023-02-09T17:21:02.297Z,102092.44
2023-02-09T17:23:31.557Z,102082.94
2023-02-09T17:25:59.773Z,102086.38
2023-02-09T17:28:28.095Z,102089.06
2023-02-09T17:30:59.510Z,102089.22
2023-02-09T17:33:33.233Z,102096.00
2023-02-09T17:38:52.010Z,102079.84
2023-02-09T17:41:28.890Z,102080.66
2023-02-09T17:44:19.673Z,102079.84
2023-02-09T17:46:53.696Z,102080.78
2023-02-09T17:49:22.223Z,102082.97
2023-02-09T17:51:51.597Z,102090.47
2023-02-09T17:54:22.238Z,102085.84
2023-02-09T17:56:50.544Z,102091.66
2023-02-09T17:59:20.379Z,102078.81
2023-02-09T18:01:50.343Z,102076.94
2023-02-09T18:04:21.922Z,102079.47
2023-02-09T18:06:50.465Z,102086.38
2023-02-09T18:09:19.149Z,102075.16
2023-02-09T18:11:50.486Z,102080.13
2023-02-09T18:14:22.206Z,102085.31
2023-02-09T18:16:52.132Z,102082.84
2023-02-09T18:19:22.596Z,102083.72
2023-02-09T18:21:59.269Z,102080.31
2023-02-09T18:24:34.165Z,102089.88
2023-02-09T18:27:02.540Z,102098.53
2023-02-09T18:29:32.201Z,102108.66
2023-02-09T18:32:02.371Z,102095.03
2023-02-09T18:34:31.482Z,102083.25
2023-02-09T18:36:59.903Z,102088.47
2023-02-09T18:39:28.418Z,102089.44
2023-02-09T18:41:57.506Z,102096.34
2023-02-09T18:44:31.253Z,102092.09
2023-02-09T18:47:03.083Z,102086.97
2023-02-09T18:49:31.665Z,102097.19
2023-02-09T18:52:01.618Z,102090.31
2023-02-09T18:54:32.892Z,102092.78
2023-02-09T18:57:01.340Z,102085.16
2023-02-09T18:59:31.543Z,102092.81
2023-02-09T19:02:00.799Z,102088.66
2023-02-09T19:04:29.356Z,102087.91
2023-02-09T19:06:58.597Z,102077.72
2023-02-09T19:09:28.195Z,102089.62
2023-02-09T19:11:57.458Z,102081.00
2023-02-09T19:14:38.610Z,102087.84
2023-02-09T19:17:09.972Z,102086.19
2023-02-09T19:19:38.996Z,102089.41
2023-02-09T19:22:08.059Z,102085.31
2023-02-09T19:24:36.673Z,102087.09
2023-02-09T19:27:06.826Z,102085.47
2023-02-09T19:29:37.092Z,102075.31
2023-02-09T19:32:06.133Z,102083.81
2023-02-09T19:34:38.766Z,102088.97
2023-02-09T19:37:08.098Z,102075.28
2023-02-09T19:39:38.733Z,102082.09
2023-02-09T19:42:08.374Z,102088.19
2023-02-09T19:44:37.605Z,102083.12
2023-02-09T19:47:05.625Z,102087.44
2023-02-09T19:49:37.119Z,102079.78
2023-02-09T19:52:06.838Z,102078.03
2023-02-09T19:54:35.681Z,102080.53
2023-02-09T19:57:04.642Z,102093.19
2023-02-09T19:59:33.419Z,102099.34
2023-02-09T20:02:01.678Z,102105.28
2023-02-09T20:04:30.736Z,102104.44
2023-02-09T20:06:59.450Z,102106.97
2023-02-09T20:09:27.947Z,102106.12
2023-02-09T20:14:31.664Z,102103.72
2023-02-09T20:17:02.164Z,102098.56
2023-02-09T20:19:31.091Z,102090.94
2023-02-09T20:21:59.421Z,102095.22
2023-02-09T20:24:28.456Z,102085.88
2023-02-09T20:26:57.305Z,102078.22
2023-02-09T20:29:26.683Z,102084.19
2023-02-09T20:31:56.364Z,102086.78
2023-02-09T20:34:24.681Z,102082.53
2023-02-09T20:36:54.434Z,102089.34
2023-02-09T20:39:23.492Z,102080.87
2023-02-09T20:42:15.811Z,102092.75
2023-02-09T20:45:03.519Z,102073.22
2023-02-09T20:47:31.801Z,102077.41
2023-02-09T20:50:01.010Z,102076.53
2023-02-09T20:52:30.111Z,102082.50
2023-02-09T20:54:58.454Z,102078.28
2023-02-09T20:57:33.871Z,102074.03
2023-02-09T21:00:02.401Z,102077.41
2023-02-09T21:02:32.860Z,102069.81
2023-02-09T21:05:01.231Z,102086.84
2023-02-09T21:07:29.613Z,102077.47
2023-02-09T21:09:58.396Z,102073.25
2023-02-09T21:12:27.090Z,102079.19
2023-02-09T21:14:56.563Z,102080.87
2023-02-09T21:17:25.472Z,102082.53
2023-02-09T21:19:53.781Z,102083.41
2023-02-09T21:22:22.207Z,102087.63
2023-02-09T21:24:51.054Z,102084.25
2023-02-09T21:27:19.449Z,102085.97
2023-02-09T21:29:47.579Z,102088.53
2023-02-09T21:32:16.228Z,102080.03
2023-02-09T21:34:44.468Z,102083.44
2023-02-09T21:37:14.104Z,102086.00
2023-02-09T21:39:42.753Z,102086.00
2023-02-09T21:42:28.920Z,102091.91
2023-02-09T21:44:58.700Z,102082.59
2023-02-09T21:47:35.546Z,102093.59
2023-02-09T21:50:05.938Z,102091.91
2023-02-09T21:52:34.744Z,102080.87
2023-02-09T21:55:03.741Z,102082.56
2023-02-09T21:57:32.473Z,102070.72
2023-02-09T22:00:05.323Z,102080.87
2023-02-09T22:02:33.876Z,102069.00
2023-02-09T22:05:02.588Z,102069.88
2023-02-09T22:07:31.010Z,102062.22
2023-02-09T22:09:59.332Z,102061.34
2023-02-09T22:12:28.442Z,102065.59
2023-02-09T22:14:56.820Z,102066.44
2023-02-09T22:17:25.080Z,102063.06
2023-02-09T22:19:53.408Z,102061.34
2023-02-09T22:22:21.528Z,102069.84
2023-02-09T22:24:49.845Z,102060.53
2023-02-09T22:27:18.340Z,102064.75
2023-02-09T22:29:47.006Z,102069.84
2023-02-09T22:32:15.560Z,102063.03
2023-02-09T22:34:44.053Z,102073.22
2023-02-09T22:37:12.531Z,102072.34
2023-02-09T22:39:40.959Z,102063.87
2023-02-09T22:42:09.417Z,102065.56
2023-02-09T22:44:37.430Z,102078.28
2023-02-09T22:47:05.814Z,102073.19
2023-02-09T22:49:34.387Z,102077.41
2023-02-09T22:52:02.730Z,102078.25
2023-02-09T22:54:31.585Z,102082.50
2023-02-09T22:57:00.138Z,102079.09
2023-02-09T22:59:28.382Z,102076.56
2023-02-09T23:01:56.629Z,102059.53
2023-02-09T23:04:25.250Z,102065.41
2023-02-09T23:06:53.286Z,102056.16
2023-02-09T23:09:21.750Z,102064.59
2023-02-09T23:11:50.416Z,102053.53
2023-02-09T23:14:18.866Z,102065.44
2023-02-09T23:16:47.812Z,102057.78
2023-02-09T23:19:18.654Z,102055.25
2023-02-09T23:21:52.096Z,102061.13
2023-02-09T23:24:22.397Z,102057.81
2023-02-09T23:26:51.575Z,102056.81
2023-02-09T23:29:20.797Z,102057.66
2023-02-09T23:31:49.909Z,102054.34
2023-02-09T23:34:21.053Z,102051.69
2023-02-09T23:36:50.294Z,102050.03
2023-02-09T23:39:21.149Z,102043.25
2023-02-09T23:41:49.612Z,102044.13
2023-02-09T23:44:17.895Z,102056.78
2023-02-09T23:46:46.290Z,102044.84
2023-02-09T23:49:14.758Z,102045.00
2023-02-09T23:51:45.156Z,102052.44
2023-02-09T23:54:13.476Z,102051.66
2023-02-09T23:56:42.027Z,102063.53
2023-02-09T23:59:15.026Z,102053.19
